Time;durP1;ratioP1;P1;durP2;ratioP2;P2;SDS_P1;SDS_P2;PMS_P1;PMS_P2;Temp;Humidity;BMP_temperature;BMP_pressure;BME280_temperature;BME280_humidity;BME280_pressure;Samples;Min_cycle;Max_cycle;Signal;HPM_P1;HPM_P2
2023/02/18 00:00:17;;;;;;;2.25;1.20;;;23.60;48.00;;;;;;5020057;28;20120;-68
2023/02/18 00:02:43;;;;;;;1.70;1.15;;;23.60;48.00;;;;;;5017997;28;20044;-68
2023/02/18 00:05:09;;;;;;;2.20;1.10;;;23.60;48.10;;;;;;5014359;28;20029;-68
2023/02/18 00:07:36;;;;;;;2.35;1.20;;;23.50;48.10;;;;;;5019046;28;20414;-69
2023/02/18 00:10:04;;;;;;;1.55;1.10;;;23.50;48.00;;;;;;5019980;28;20029;-68
2023/02/18 00:12:30;;;;;;;2.30;1.33;;;23.50;48.10;;;;;;5019316;28;20032;-68
2023/02/18 00:14:56;;;;;;;1.30;0.93;;;23.50;48.10;;;;;;5025953;28;20037;-68
2023/02/18 00:17:22;;;;;;;2.00;1.20;;;23.50;48.10;;;;;;5018121;28;20048;-68
2023/02/18 00:19:48;;;;;;;1.67;1.08;;;23.40;48.10;;;;;;5018526;28;20489;-68
2023/02/18 00:22:13;;;;;;;2.25;1.10;;;23.40;48.10;;;;;;5019999;28;20105;-68
2023/02/18 00:24:39;;;;;;;2.05;1.08;;;23.40;48.10;;;;;;5019859;28;20069;-68
2023/02/18 00:27:05;;;;;;;2.10;1.30;;;23.40;48.20;;;;;;5019161;28;20025;-68
2023/02/18 00:29:31;;;;;;;1.60;1.05;;;23.40;48.20;;;;;;5022209;28;20405;-68
2023/02/18 00:31:56;;;;;;;1.30;1.00;;;23.40;48.20;;;;;;5023986;28;20490;-68
2023/02/18 00:34:22;;;;;;;1.58;1.02;;;23.40;48.20;;;;;;5021816;28;20064;-67
2023/02/18 00:36:48;;;;;;;1.98;1.30;;;23.30;48.20;;;;;;5022681;28;20389;-68
2023/02/18 00:39:13;;;;;;;2.00;1.20;;;23.30;48.20;;;;;;5020471;28;20100;-67
2023/02/18 00:41:39;;;;;;;1.30;0.95;;;23.30;48.20;;;;;;5022807;28;20497;-67
2023/02/18 00:44:05;;;;;;;1.63;1.00;;;23.30;48.20;;;;;;5030587;28;20489;-68
2023/02/18 00:46:31;;;;;;;1.25;0.93;;;23.20;48.10;;;;;;5021552;28;20033;-68
2023/02/18 00:48:57;;;;;;;1.65;0.90;;;23.20;48.10;;;;;;5022644;28;20556;-68
2023/02/18 00:51:26;;;;;;;2.70;1.05;;;23.20;48.20;;;;;;5021314;28;20085;-68
2023/02/18 00:53:52;;;;;;;1.80;1.02;;;23.20;48.20;;;;;;5020551;28;20041;-67
2023/02/18 00:56:19;;;;;;;1.48;0.90;;;23.20;48.20;;;;;;5022310;28;20121;-68
2023/02/18 00:58:45;;;;;;;1.52;0.93;;;23.20;48.20;;;;;;5023047;28;20480;-68
2023/02/18 01:01:11;;;;;;;1.98;1.10;;;23.20;48.20;;;;;;5021058;28;20038;-67
2023/02/18 01:03:38;;;;;;;1.80;1.00;;;23.20;48.30;;;;;;5022437;28;20124;-67
2023/02/18 01:06:05;;;;;;;1.38;1.00;;;23.10;48.20;;;;;;5022726;28;20037;-67
2023/02/18 01:08:30;;;;;;;1.90;1.10;;;23.10;48.20;;;;;;5018352;28;20060;-68
2023/02/18 01:10:57;;;;;;;1.63;1.00;;;23.10;48.30;;;;;;5023306;28;20057;-68
2023/02/18 01:13:23;;;;;;;1.67;0.90;;;23.10;48.30;;;;;;5022090;28;20511;-68
2023/02/18 01:15:49;;;;;;;1.48;0.93;;;23.00;48.30;;;;;;5023657;28;20035;-67
2023/02/18 01:18:16;;;;;;;1.77;1.00;;;23.00;48.80;;;;;;5015824;28;20530;-67
2023/02/18 01:20:43;;;;;;;1.50;0.90;;;23.00;48.30;;;;;;5021653;28;20030;-67
2023/02/18 01:23:09;;;;;;;2.17;1.10;;;23.00;48.30;;;;;;5020961;28;20084;-68
2023/02/18 01:25:35;;;;;;;1.55;0.85;;;23.00;48.40;;;;;;5022651;28;20094;-68
2023/02/18 01:28:01;;;;;;;2.20;1.10;;;23.00;48.40;;;;;;5038046;28;20079;-68
2023/02/18 01:30:27;;;;;;;1.33;0.90;;;23.00;48.40;;;;;;5029137;28;20060;-68
2023/02/18 01:32:54;;;;;;;1.67;0.88;;;23.00;48.40;;;;;;5020645;28;20022;-68
2023/02/18 01:35:19;;;;;;;1.60;1.10;;;23.00;48.40;;;;;;5022585;28;20496;-68
2023/02/18 01:37:46;;;;;;;1.23;0.90;;;23.00;48.40;;;;;;5020320;28;20029;-68
2023/02/18 01:40:14;;;;;;;1.85;0.82;;;22.90;48.40;;;;;;5019241;28;20080;-68
2023/02/18 01:42:40;;;;;;;1.40;0.80;;;22.90;48.50;;;;;;5020850;28;20488;-68
2023/02/18 01:45:34;;;;;;;2.60;0.90;;;22.90;48.50;;;;;;5020069;28;20061;-68
2023/02/18 01:48:14;;;;;;;1.40;0.90;;;22.90;48.40;;;;;;5021593;28;20040;-67
2023/02/18 01:50:44;;;;;;;1.77;1.02;;;22.90;48.50;;;;;;5020598;28;20068;-68
2023/02/18 01:53:17;;;;;;;1.45;0.88;;;22.90;48.50;;;;;;5016638;28;20025;-67
2023/02/18 01:55:43;;;;;;;1.27;0.80;;;22.80;48.50;;;;;;5024133;28;20087;-67
2023/02/18 01:58:11;;;;;;;0.80;0.70;;;22.90;48.50;;;;;;5036023;28;20433;-68
2023/02/18 02:00:36;;;;;;;1.67;0.80;;;22.80;48.50;;;;;;5020142;28;20381;-67
2023/02/18 02:03:02;;;;;;;1.30;0.90;;;22.80;48.50;;;;;;5018132;28;20125;-67
2023/02/18 02:05:32;;;;;;;1.20;0.80;;;22.80;48.50;;;;;;5021988;28;20112;-67
2023/02/18 02:07:59;;;;;;;1.50;1.00;;;22.80;48.60;;;;;;5017365;28;20025;-68
2023/02/18 02:10:40;;;;;;;1.60;0.98;;;22.80;48.60;;;;;;5021421;28;20037;-67
2023/02/18 02:13:28;;;;;;;1.30;0.90;;;22.70;48.60;;;;;;5021111;28;20022;-69
2023/02/18 02:16:15;;;;;;;1.65;0.90;;;22.70;48.70;;;;;;5019983;28;20100;-69
2023/02/18 02:19:03;;;;;;;1.20;0.75;;;22.70;48.60;;;;;;5023182;28;20022;-68
2023/02/18 02:21:35;;;;;;;1.50;1.00;;;22.70;48.60;;;;;;5019273;28;20437;-68
2023/02/18 02:24:09;;;;;;;1.65;0.90;;;22.60;48.60;;;;;;5020611;28;20153;-69
2023/02/18 02:26:40;;;;;;;1.23;0.77;;;22.70;48.70;;;;;;5020254;28;20067;-68
2023/02/18 02:29:14;;;;;;;0.73;0.63;;;22.70;48.70;;;;;;5020709;28;20526;-68
2023/02/18 02:31:52;;;;;;;1.20;0.80;;;22.70;48.70;;;;;;5018967;28;20080;-69
2023/02/18 02:34:30;;;;;;;0.93;0.70;;;22.60;48.70;;;;;;5021189;28;20495;-69
2023/02/18 02:37:04;;;;;;;1.20;0.90;;;22.60;48.70;;;;;;5023986;28;20076;-69
2023/02/18 02:39:48;;;;;;;1.00;0.70;;;22.60;48.70;;;;;;5022659;28;20029;-68
2023/02/18 02:42:29;;;;;;;0.75;0.60;;;22.60;48.70;;;;;;5018630;28;20033;-67
2023/02/18 02:45:32;;;;;;;1.23;0.80;;;22.60;48.80;;;;;;5021982;28;20030;-68
2023/02/18 02:48:06;;;;;;;1.05;0.80;;;22.60;48.80;;;;;;5021648;28;20037;-68
2023/02/18 02:50:50;;;;;;;1.20;0.70;;;22.60;48.80;;;;;;5024528;28;20117;-68
2023/02/18 02:53:21;;;;;;;0.82;0.70;;;22.50;48.80;;;;;;5019707;28;20504;-68
2023/02/18 02:55:47;;;;;;;0.98;0.70;;;22.50;48.80;;;;;;5026347;28;20029;-68
2023/02/18 02:58:15;;;;;;;1.05;0.70;;;22.50;48.80;;;;;;5024612;28;20326;-68
2023/02/18 03:01:06;;;;;;;1.10;0.73;;;22.50;48.80;;;;;;5019598;28;20017;-67
2023/02/18 03:03:53;;;;;;;1.30;0.70;;;22.50;48.80;;;;;;5019689;28;20025;-67
2023/02/18 03:06:33;;;;;;;0.93;0.65;;;22.50;48.80;;;;;;5016815;28;20065;-68
2023/02/18 03:09:33;;;;;;;0.80;0.63;;;22.50;48.80;;;;;;5024913;28;20030;-67
2023/02/18 03:12:07;;;;;;;1.10;0.73;;;22.50;48.90;;;;;;5023060;28;20116;-67
2023/02/18 03:14:55;;;;;;;0.68;0.60;;;22.50;48.90;;;;;;5018681;28;20045;-68
2023/02/18 03:17:26;;;;;;;0.82;0.70;;;22.40;48.90;;;;;;5020419;28;20022;-68
2023/02/18 03:20:01;;;;;;;0.80;0.80;;;22.40;49.00;;;;;;5018403;28;20052;-68
2023/02/18 03:22:39;;;;;;;0.98;0.68;;;22.40;49.00;;;;;;5016980;28;20022;-68
2023/02/18 03:25:07;;;;;;;0.90;0.70;;;22.40;49.00;;;;;;5019585;28;20513;-68
2023/02/18 03:27:39;;;;;;;1.60;0.90;;;22.40;48.90;;;;;;5019541;28;20037;-68
2023/02/18 03:30:33;;;;;;;0.88;0.70;;;22.40;48.90;;;;;;5018158;28;20034;-68
2023/02/18 03:33:03;;;;;;;1.08;0.70;;;22.40;49.00;;;;;;5001096;28;20044;-68
2023/02/18 03:35:29;;;;;;;0.85;0.70;;;22.40;48.90;;;;;;5017895;28;20038;-68
2023/02/18 03:38:01;;;;;;;0.65;0.60;;;22.30;48.90;;;;;;5018188;28;20033;-68
2023/02/18 03:40:29;;;;;;;0.65;0.65;;;22.30;48.90;;;;;;5020742;28;20030;-68
2023/02/18 03:42:57;;;;;;;0.60;0.60;;;22.30;48.90;;;;;;5017254;28;20037;-68
2023/02/18 03:45:24;;;;;;;0.75;0.63;;;22.30;48.90;;;;;;5020300;28;20061;-68
2023/02/18 03:47:49;;;;;;;0.45;0.43;;;22.30;48.90;;;;;;5030195;28;20052;-68
2023/02/18 03:50:15;;;;;;;0.90;0.70;;;22.30;48.90;;;;;;5015150;28;20397;-68
2023/02/18 03:52:41;;;;;;;0.82;0.68;;;22.30;48.90;;;;;;5021943;28;20025;-68
2023/02/18 03:55:08;;;;;;;0.73;0.70;;;22.30;48.90;;;;;;5018646;28;20180;-68
2023/02/18 03:57:33;;;;;;;0.65;0.60;;;22.30;48.90;;;;;;5020738;28;20034;-67
2023/02/18 03:59:59;;;;;;;0.85;0.60;;;22.30;48.90;;;;;;5018077;28;20393;-67
2023/02/18 04:02:25;;;;;;;0.60;0.60;;;22.30;48.90;;;;;;5018277;28;20076;-67
2023/02/18 04:04:51;;;;;;;0.68;0.60;;;22.30;48.90;;;;;;5020589;28;20040;-68
2023/02/18 04:07:16;;;;;;;0.80;0.60;;;22.30;48.90;;;;;;5019502;28;20381;-69
2023/02/18 04:09:42;;;;;;;1.00;0.73;;;22.20;48.80;;;;;;5020586;28;20110;-68
2023/02/18 04:12:07;;;;;;;0.68;0.52;;;22.20;48.80;;;;;;5015885;28;20022;-68
2023/02/18 04:14:33;;;;;;;0.95;0.70;;;22.20;48.80;;;;;;5020167;28;20034;-67
2023/02/18 04:17:00;;;;;;;0.70;0.65;;;22.30;49.00;;;;;;5018772;28;20048;-68
2023/02/18 04:19:25;;;;;;;0.70;0.60;;;22.20;48.90;;;;;;5021056;28;20365;-68
2023/02/18 04:21:51;;;;;;;0.65;0.60;;;22.20;48.90;;;;;;5017764;28;20038;-68
2023/02/18 04:24:17;;;;;;;1.00;0.75;;;22.20;48.90;;;;;;5016881;28;20065;-68
2023/02/18 04:26:42;;;;;;;0.75;0.60;;;22.20;48.90;;;;;;5020183;28;20120;-68
2023/02/18 04:29:08;;;;;;;0.85;0.60;;;22.20;49.00;;;;;;5018717;28;20496;-67
2023/02/18 04:31:33;;;;;;;0.80;0.50;;;22.20;49.00;;;;;;5021467;28;20025;-67
2023/02/18 04:33:59;;;;;;;0.95;0.73;;;22.20;49.00;;;;;;5018081;28;20079;-67
2023/02/18 04:36:25;;;;;;;1.00;0.70;;;22.20;49.00;;;;;;5017565;28;20114;-67
2023/02/18 04:38:50;;;;;;;0.73;0.60;;;22.20;49.00;;;;;;5019634;28;20026;-67
2023/02/18 04:41:16;;;;;;;1.17;0.70;;;22.20;49.00;;;;;;5017495;28;20121;-68
2023/02/18 04:43:41;;;;;;;0.75;0.63;;;22.20;49.00;;;;;;5015859;28;20041;-68
2023/02/18 04:46:07;;;;;;;0.95;0.70;;;22.10;49.10;;;;;;5018129;28;20025;-68
2023/02/18 04:48:33;;;;;;;0.80;0.60;;;22.10;49.00;;;;;;5021473;28;20111;-68
2023/02/18 04:50:59;;;;;;;0.60;0.60;;;22.10;49.00;;;;;;5019027;28;20038;-69
2023/02/18 04:53:25;;;;;;;0.50;0.50;;;22.10;49.10;;;;;;5018955;28;20350;-68
2023/02/18 04:55:52;;;;;;;1.00;0.60;;;22.10;49.10;;;;;;5016143;28;20057;-68
2023/02/18 04:58:18;;;;;;;0.55;0.55;;;22.10;49.00;;;;;;5018201;28;20057;-69
2023/02/18 05:00:44;;;;;;;0.52;0.52;;;22.10;49.10;;;;;;5014133;28;20129;-69
2023/02/18 05:03:09;;;;;;;0.50;0.50;;;22.10;49.10;;;;;;5016262;28;20481;-69
2023/02/18 05:05:36;;;;;;;0.70;0.60;;;22.10;49.60;;;;;;5015644;28;20460;-69
2023/02/18 05:08:02;;;;;;;0.60;0.60;;;22.10;49.10;;;;;;5017711;28;20032;-68
2023/02/18 05:10:28;;;;;;;0.90;0.70;;;22.10;49.00;;;;;;5018167;28;20022;-68
2023/02/18 05:12:54;;;;;;;0.75;0.60;;;22.10;49.10;;;;;;5021200;28;20029;-69
2023/02/18 05:15:19;;;;;;;0.50;0.50;;;22.00;49.00;;;;;;5019046;28;20029;-68
2023/02/18 05:17:45;;;;;;;0.82;0.60;;;22.10;49.10;;;;;;5022115;28;20021;-69
2023/02/18 05:20:11;;;;;;;1.02;0.60;;;22.10;49.10;;;;;;5020581;28;20125;-68
2023/02/18 05:22:37;;;;;;;0.50;0.50;;;22.00;49.00;;;;;;5022166;28;20028;-69
2023/02/18 05:25:04;;;;;;;0.88;0.68;;;22.00;49.00;;;;;;5023425;28;20041;-68
2023/02/18 05:27:30;;;;;;;0.50;0.50;;;22.10;49.00;;;;;;5021666;28;20501;-69
2023/02/18 05:29:55;;;;;;;0.55;0.50;;;22.10;49.00;;;;;;5019924;28;20041;-68
2023/02/18 05:32:21;;;;;;;0.82;0.60;;;22.00;49.40;;;;;;5023097;28;20022;-68
2023/02/18 05:34:47;;;;;;;0.50;0.50;;;22.00;49.00;;;;;;5023130;28;20029;-68
2023/02/18 05:37:13;;;;;;;1.17;0.60;;;22.00;48.90;;;;;;5023252;28;20083;-68
2023/02/18 05:39:39;;;;;;;0.80;0.60;;;22.00;48.90;;;;;;5020036;28;20037;-68
2023/02/18 05:42:05;;;;;;;0.43;0.43;;;22.10;48.90;;;;;;5021555;28;20406;-67
2023/02/18 05:44:32;;;;;;;0.55;0.45;;;22.00;49.30;;;;;;5020032;28;20033;-68
2023/02/18 05:47:03;;;;;;;0.70;0.60;;;22.00;48.90;;;;;;5021654;28;20033;-69
2023/02/18 05:49:30;;;;;;;0.50;0.50;;;22.00;49.00;;;;;;5022812;28;20083;-67
2023/02/18 05:51:55;;;;;;;0.77;0.50;;;22.00;49.00;;;;;;5021609;28;20088;-68
2023/02/18 05:54:21;;;;;;;0.80;0.60;;;22.00;49.00;;;;;;5019440;28;20477;-68
2023/02/18 05:56:47;;;;;;;0.50;0.50;;;22.00;49.00;;;;;;5021757;28;20108;-69
2023/02/18 05:59:13;;;;;;;0.82;0.50;;;22.00;49.00;;;;;;5016244;28;20124;-69
2023/02/18 06:01:39;;;;;;;0.80;0.50;;;22.00;49.60;;;;;;5021849;28;20088;-67
2023/02/18 06:04:05;;;;;;;0.80;0.57;;;22.00;49.00;;;;;;5025394;28;20034;-68
2023/02/18 06:06:31;;;;;;;0.63;0.50;;;22.00;49.00;;;;;;5021251;28;20125;-68
2023/02/18 06:08:56;;;;;;;0.70;0.60;;;22.00;49.00;;;;;;5021118;28;20025;-68
2023/02/18 06:11:22;;;;;;;0.85;0.63;;;22.00;49.10;;;;;;5030013;28;20021;-67
2023/02/18 06:13:47;;;;;;;0.60;0.60;;;22.00;49.10;;;;;;5021999;28;20033;-68
2023/02/18 06:16:13;;;;;;;0.60;0.50;;;22.00;49.10;;;;;;5019896;28;20029;-68
2023/02/18 06:18:39;;;;;;;0.57;0.50;;;22.00;49.10;;;;;;5020809;28;20026;-67
2023/02/18 06:21:05;;;;;;;0.80;0.60;;;22.00;49.20;;;;;;5021553;28;20076;-67
2023/02/18 06:23:30;;;;;;;0.77;0.52;;;22.00;49.20;;;;;;5021764;28;20113;-68
2023/02/18 06:25:56;;;;;;;0.40;0.40;;;22.00;49.20;;;;;;5020106;28;20488;-68
2023/02/18 06:28:22;;;;;;;0.73;0.55;;;22.00;49.20;;;;;;5019383;28;20053;-68
2023/02/18 06:30:48;;;;;;;0.70;0.60;;;22.00;49.20;;;;;;5019607;28;20084;-68
2023/02/18 06:33:14;;;;;;;0.50;0.50;;;22.00;49.20;;;;;;5016508;28;20024;-68
2023/02/18 06:35:40;;;;;;;0.93;0.60;;;21.90;49.70;;;;;;5019090;28;20108;-68
2023/02/18 06:38:05;;;;;;;0.55;0.45;;;21.90;49.20;;;;;;5020250;28;20052;-67
2023/02/18 06:40:31;;;;;;;0.50;0.50;;;21.90;49.20;;;;;;5020994;28;20045;-68
2023/02/18 06:42:56;;;;;;;0.73;0.60;;;21.90;49.20;;;;;;5019949;28;20456;-67
2023/02/18 06:45:22;;;;;;;1.17;0.70;;;21.90;49.20;;;;;;5020823;28;20028;-67
2023/02/18 06:47:48;;;;;;;0.85;0.60;;;21.90;49.20;;;;;;5018292;28;20441;-68
2023/02/18 06:50:14;;;;;;;0.65;0.57;;;21.90;49.20;;;;;;5020879;28;20040;-68
2023/02/18 06:52:39;;;;;;;0.80;0.57;;;21.90;49.20;;;;;;5020703;28;20037;-68
2023/02/18 06:55:06;;;;;;;0.70;0.40;;;21.90;49.20;;;;;;5018559;28;20121;-68
2023/02/18 06:57:31;;;;;;;0.68;0.50;;;21.90;49.20;;;;;;5020796;28;20105;-68
2023/02/18 06:59:57;;;;;;;0.80;0.52;;;21.90;49.20;;;;;;5018491;28;20124;-68
2023/02/18 07:02:23;;;;;;;1.00;0.60;;;21.90;49.20;;;;;;5019608;28;20072;-68
2023/02/18 07:04:48;;;;;;;0.80;0.63;;;21.90;49.70;;;;;;5020024;28;20353;-68
2023/02/18 07:07:14;;;;;;;1.00;0.50;;;21.90;49.20;;;;;;5018657;28;20026;-69
2023/02/18 07:09:40;;;;;;;0.93;0.52;;;21.90;49.20;;;;;;5018431;28;20026;-68
2023/02/18 07:12:05;;;;;;;1.85;0.65;;;21.90;49.20;;;;;;5019839;28;20034;-70
2023/02/18 07:14:31;;;;;;;0.90;0.60;;;21.90;49.20;;;;;;5015436;28;20033;-69
2023/02/18 07:16:57;;;;;;;0.70;0.60;;;21.90;49.20;;;;;;5020025;28;20026;-70
2023/02/18 07:19:22;;;;;;;0.98;0.60;;;21.90;49.20;;;;;;5021242;28;20556;-69
2023/02/18 07:21:48;;;;;;;0.73;0.52;;;21.80;49.10;;;;;;5017590;28;20124;-69
2023/02/18 07:24:14;;;;;;;0.90;0.60;;;21.80;49.10;;;;;;5019137;28;20461;-69
2023/02/18 07:26:39;;;;;;;0.57;0.50;;;21.80;49.10;;;;;;5019397;28;20160;-69
2023/02/18 07:29:05;;;;;;;0.98;0.50;;;21.80;49.10;;;;;;5033320;28;20133;-70
2023/02/18 07:31:30;;;;;;;0.88;0.55;;;21.80;49.00;;;;;;5019173;28;20400;-70
2023/02/18 07:33:56;;;;;;;0.55;0.50;;;21.80;49.00;;;;;;5018724;28;20025;-70
2023/02/18 07:36:21;;;;;;;0.85;0.60;;;21.80;49.50;;;;;;5013883;28;20084;-70
2023/02/18 07:38:47;;;;;;;0.98;0.60;;;21.80;49.00;;;;;;5016163;28;20065;-69
2023/02/18 07:41:18;;;;;;;0.50;0.50;;;21.80;49.00;;;;;;5020959;28;20041;-70
2023/02/18 07:43:44;;;;;;;0.50;0.50;;;21.80;49.50;;;;;;5020279;28;20030;-69
2023/02/18 07:46:10;;;;;;;0.52;0.50;;;21.80;49.10;;;;;;5017718;28;20101;-69
2023/02/18 07:48:36;;;;;;;0.60;0.60;;;21.80;49.10;;;;;;5018396;28;20461;-70
2023/02/18 07:51:08;;;;;;;0.98;0.60;;;21.80;49.10;;;;;;5022535;28;20040;-69
2023/02/18 07:53:35;;;;;;;0.50;0.50;;;21.80;49.00;;;;;;5026153;28;20091;-69
2023/02/18 07:56:01;;;;;;;0.77;0.57;;;21.80;49.10;;;;;;5019021;28;20432;-69
2023/02/18 07:58:32;;;;;;;0.50;0.45;;;21.80;49.60;;;;;;5019049;28;20398;-69
2023/02/18 08:00:58;;;;;;;0.65;0.60;;;21.80;49.10;;;;;;5019510;28;20034;-69
2023/02/18 08:03:27;;;;;;;0.43;0.40;;;21.70;49.00;;;;;;5020379;28;20385;-68
2023/02/18 08:05:54;;;;;;;0.70;0.60;;;21.80;49.10;;;;;;5032197;28;20083;-69
2023/02/18 08:08:22;;;;;;;0.52;0.50;;;21.80;49.10;;;;;;5018090;28;20040;-68
2023/02/18 08:10:48;;;;;;;0.80;0.50;;;21.70;49.10;;;;;;5025921;28;20022;-69
2023/02/18 08:13:14;;;;;;;0.43;0.40;;;21.70;49.10;;;;;;5018521;28;20106;-69
2023/02/18 08:15:40;;;;;;;0.50;0.50;;;21.70;49.10;;;;;;5017357;28;20101;-69
2023/02/18 08:18:08;;;;;;;0.60;0.60;;;21.70;49.10;;;;;;5019882;28;20065;-69
2023/02/18 08:20:37;;;;;;;0.90;0.60;;;21.70;49.10;;;;;;5020011;28;20428;-67
2023/02/18 08:23:05;;;;;;;0.55;0.40;;;21.70;49.10;;;;;;5018303;28;20029;-69
2023/02/18 08:25:30;;;;;;;0.50;0.50;;;21.70;49.20;;;;;;5017602;28;20371;-69
2023/02/18 08:27:56;;;;;;;0.50;0.50;;;21.70;49.10;;;;;;5019635;28;20048;-68
2023/02/18 08:30:22;;;;;;;0.88;0.50;;;21.70;49.20;;;;;;5018418;28;20308;-69
2023/02/18 08:32:47;;;;;;;0.40;0.40;;;21.70;49.10;;;;;;5019069;28;20089;-68
2023/02/18 08:35:13;;;;;;;0.50;0.50;;;21.70;49.20;;;;;;5032710;28;20038;-69
2023/02/18 08:37:39;;;;;;;0.77;0.60;;;21.70;49.20;;;;;;5019124;28;20033;-68
2023/02/18 08:40:06;;;;;;;0.35;0.35;;;21.70;49.20;;;;;;5017949;28;20034;-69
2023/02/18 08:42:31;;;;;;;0.73;0.50;;;21.70;49.20;;;;;;5019238;28;20056;-68
2023/02/18 08:44:57;;;;;;;0.95;0.50;;;21.70;49.20;;;;;;5016572;28;20046;-69
2023/02/18 08:47:22;;;;;;;0.95;0.57;;;21.70;49.20;;;;;;5016813;28;20176;-69
2023/02/18 08:49:48;;;;;;;0.40;0.40;;;21.70;49.20;;;;;;5023201;28;20037;-69
2023/02/18 08:52:14;;;;;;;0.50;0.50;;;21.70;49.20;;;;;;5020633;28;20029;-69
2023/02/18 08:54:39;;;;;;;0.95;0.50;;;21.70;49.30;;;;;;5018986;28;20033;-69
2023/02/18 08:57:05;;;;;;;0.75;0.50;;;21.70;49.30;;;;;;5021194;28;20485;-69
2023/02/18 08:59:30;;;;;;;0.70;0.50;;;21.70;49.30;;;;;;5021917;28;20042;-70
2023/02/18 09:01:56;;;;;;;0.75;0.47;;;21.70;49.30;;;;;;5021434;28;20040;-69
2023/02/18 09:04:22;;;;;;;0.40;0.40;;;21.60;49.30;;;;;;5020671;28;20353;-70
2023/02/18 09:06:49;;;;;;;0.70;0.60;;;21.70;49.80;;;;;;5021006;28;20025;-69
2023/02/18 09:09:15;;;;;;;0.40;0.40;;;21.70;49.30;;;;;;5035320;28;20033;-70
2023/02/18 09:11:42;;;;;;;1.05;0.50;;;21.60;49.30;;;;;;5037807;28;20142;-69
2023/02/18 09:14:07;;;;;;;0.70;0.50;;;21.60;49.20;;;;;;5023276;28;20022;-70
2023/02/18 09:16:33;;;;;;;0.57;0.40;;;21.60;49.30;;;;;;5021399;28;20045;-70
2023/02/18 09:18:59;;;;;;;0.50;0.50;;;21.60;49.20;;;;;;5021848;28;20428;-70
2023/02/18 09:21:25;;;;;;;0.50;0.50;;;21.60;49.30;;;;;;5022685;28;20117;-69
2023/02/18 09:23:51;;;;;;;0.40;0.40;;;21.60;49.30;;;;;;5020350;28;20026;-70
2023/02/18 09:26:21;;;;;;;0.47;0.40;;;21.60;49.30;;;;;;5019860;28;20037;-69
2023/02/18 09:28:48;;;;;;;0.55;0.50;;;21.60;49.30;;;;;;5019687;28;20029;-69
2023/02/18 09:31:16;;;;;;;0.60;0.50;;;21.60;49.30;;;;;;5023869;28;20749;-70
2023/02/18 09:33:49;;;;;;;0.40;0.30;;;21.60;49.40;;;;;;5021408;28;20389;-70
2023/02/18 09:36:15;;;;;;;0.52;0.40;;;21.60;49.40;;;;;;5019465;28;20389;-70
2023/02/18 09:38:41;;;;;;;0.43;0.43;;;21.60;49.40;;;;;;5018450;28;20025;-70
2023/02/18 09:41:22;;;;;;;1.02;0.50;;;21.60;49.40;;;;;;5023912;28;20042;-71
2023/02/18 09:43:52;;;;;;;0.50;0.45;;;21.60;49.40;;;;;;5022062;28;20033;-70
2023/02/18 09:46:23;;;;;;;0.50;0.50;;;21.60;49.40;;;;;;5019493;28;20022;-68
2023/02/18 09:48:49;;;;;;;0.60;0.40;;;21.60;49.40;;;;;;5020278;28;20913;-69
2023/02/18 09:51:16;;;;;;;0.65;0.50;;;21.60;49.60;;;;;;5021480;28;20116;-70
2023/02/18 09:53:45;;;;;;;0.77;0.60;;;21.60;49.80;;;;;;5020775;28;20034;-69
2023/02/18 09:56:25;;;;;;;1.27;0.40;;;21.60;49.90;;;;;;5020512;28;20026;-69
2023/02/18 09:58:51;;;;;;;0.63;0.60;;;21.70;49.80;;;;;;5015360;28;20022;-70
2023/02/18 10:01:36;;;;;;;0.52;0.40;;;21.70;49.70;;;;;;5023543;28;20405;-70
2023/02/18 10:04:13;;;;;;;0.73;0.50;;;21.70;49.70;;;;;;5021287;28;20021;-70
2023/02/18 10:06:39;;;;;;;0.57;0.47;;;21.80;49.60;;;;;;5023477;28;20025;-70
2023/02/18 10:09:20;;;;;;;0.75;0.65;;;21.80;49.60;;;;;;5021105;28;20105;-69
2023/02/18 10:12:16;;;;;;;0.85;0.60;;;21.80;49.50;;;;;;5022745;28;20026;-70
2023/02/18 10:14:46;;;;;;;0.95;0.60;;;21.80;49.70;;;;;;5020919;28;20048;-69
2023/02/18 10:17:14;;;;;;;0.80;0.50;;;21.90;49.70;;;;;;5019464;28;20509;-70
2023/02/18 10:19:41;;;;;;;0.50;0.50;;;21.90;49.70;;;;;;5022211;28;20018;-69
2023/02/18 10:22:10;;;;;;;0.60;0.57;;;22.00;49.70;;;;;;5019143;28;20485;-70
2023/02/18 10:24:48;;;;;;;1.88;0.60;;;22.00;49.60;;;;;;5021590;28;20369;-70
2023/02/18 10:27:29;;;;;;;0.57;0.57;;;22.10;49.60;;;;;;5021007;28;20526;-70
2023/02/18 10:29:59;;;;;;;0.70;0.60;;;22.20;49.50;;;;;;5020714;28;20449;-69
2023/02/18 10:32:39;;;;;;;1.10;0.63;;;22.30;49.40;;;;;;5018856;28;20038;-70
2023/02/18 10:35:43;;;;;;;0.73;0.52;;;22.40;49.20;;;;;;5022828;28;20048;-69
2023/02/18 10:38:36;;;;;;;0.88;0.60;;;22.50;49.10;;;;;;5015032;28;20049;-70
2023/02/18 10:41:10;;;;;;;1.17;0.60;;;22.60;49.10;;;;;;5019382;28;20092;-70
2023/02/18 10:44:04;;;;;;;0.80;0.47;;;22.60;49.00;;;;;;5022419;28;20072;-70
2023/02/18 10:46:41;;;;;;;0.65;0.50;;;22.70;48.60;;;;;;5021259;28;20108;-70
2023/02/18 10:49:24;;;;;;;1.02;0.50;;;22.70;48.60;;;;;;5019123;28;20548;-68
2023/02/18 10:51:53;;;;;;;0.30;0.30;;;22.70;48.60;;;;;;5018019;28;20032;-69
2023/02/18 10:54:22;;;;;;;;;;;22.70;48.60;;;;;;5019667;28;20083;-69
2023/02/18 10:56:50;;;;;;;0.80;0.55;;;22.70;48.60;;;;;;5020024;28;19927;-70
2023/02/18 10:59:26;;;;;;;1.15;0.52;;;22.80;48.50;;;;;;5019609;28;20064;-70
2023/02/18 11:02:16;;;;;;;0.52;0.50;;;22.80;48.50;;;;;;5017875;28;20042;-70
2023/02/18 11:04:43;;;;;;;0.38;0.38;;;22.80;48.50;;;;;;5019629;28;20030;-70
2023/02/18 11:07:17;;;;;;;0.70;0.55;;;22.90;48.50;;;;;;5019871;28;20022;-69
2023/02/18 11:09:53;;;;;;;0.90;0.50;;;22.90;48.40;;;;;;5022258;28;20105;-71
2023/02/18 11:12:26;;;;;;;0.50;0.50;;;22.90;48.40;;;;;;5019566;28;20021;-69
2023/02/18 11:15:15;;;;;;;0.85;0.60;;;22.90;48.40;;;;;;5019516;28;20504;-69
2023/02/18 11:17:43;;;;;;;1.42;0.65;;;22.90;48.40;;;;;;5028106;28;20481;-68
2023/02/18 11:20:29;;;;;;;0.95;0.60;;;22.90;48.40;;;;;;5021139;28;20580;-72
2023/02/18 11:23:06;;;;;;;0.40;0.40;;;22.90;48.40;;;;;;5019866;28;20115;-65
2023/02/18 11:25:34;;;;;;;1.73;0.60;;;22.90;48.30;;;;;;5018342;28;20036;-69
2023/02/18 11:28:04;;;;;;;0.90;0.60;;;22.90;48.30;;;;;;5018065;28;20030;-68
2023/02/18 11:30:32;;;;;;;0.40;0.40;;;23.00;48.80;;;;;;5019771;28;20389;-68
2023/02/18 11:33:23;;;;;;;1.17;0.70;;;22.90;48.30;;;;;;5019823;28;20021;-66
2023/02/18 11:35:53;;;;;;;0.40;0.40;;;23.00;48.30;;;;;;5019647;28;20389;-68
2023/02/18 11:38:24;;;;;;;0.60;0.50;;;23.00;48.30;;;;;;5019296;28;20067;-68
2023/02/18 11:41:07;;;;;;;0.60;0.40;;;23.00;48.20;;;;;;5020753;28;20405;-67
2023/02/18 11:43:33;;;;;;;1.15;0.50;;;23.00;48.20;;;;;;5021046;28;20041;-68
2023/02/18 11:46:09;;;;;;;1.08;0.57;;;23.00;48.20;;;;;;5019003;28;20037;-68
2023/02/18 11:48:35;;;;;;;0.55;0.50;;;23.00;48.30;;;;;;5019645;28;20048;-69
2023/02/18 11:51:02;;;;;;;1.25;0.65;;;23.00;48.30;;;;;;5019419;28;20026;-68
2023/02/18 11:53:34;;;;;;;1.48;0.50;;;23.00;48.20;;;;;;5021859;28;20767;-64
2023/02/18 11:56:03;;;;;;;1.85;0.60;;;23.00;48.30;;;;;;5020189;28;20036;-69
2023/02/18 11:58:38;;;;;;;0.75;0.60;;;23.00;48.20;;;;;;5018065;28;20025;-70
2023/02/18 12:01:10;;;;;;;0.80;0.50;;;23.00;48.20;;;;;;5018867;28;20116;-70
2023/02/18 12:04:11;;;;;;;0.70;0.50;;;23.00;48.70;;;;;;5020003;28;20108;-70
2023/02/18 12:07:04;;;;;;;0.68;0.50;;;23.00;48.20;;;;;;4997898;28;20071;-70
2023/02/18 12:09:34;;;;;;;0.40;0.40;;;23.00;48.20;;;;;;5019095;28;20532;-71
2023/02/18 12:12:23;;;;;;;0.43;0.40;;;23.00;48.30;;;;;;5019827;28;20021;-70
2023/02/18 12:14:50;;;;;;;0.80;0.50;;;22.90;48.30;;;;;;5036492;28;20136;-71
2023/02/18 12:17:38;;;;;;;0.50;0.50;;;22.90;48.20;;;;;;5020376;28;20033;-70
2023/02/18 12:20:18;;;;;;;1.10;0.50;;;23.00;48.30;;;;;;5024567;28;20112;-71
2023/02/18 12:22:45;;;;;;;3.58;0.70;;;22.90;48.40;;;;;;5023544;28;20045;-70
2023/02/18 12:25:19;;;;;;;0.75;0.50;;;22.90;48.40;;;;;;5020483;28;20116;-71
2023/02/18 12:28:06;;;;;;;1.10;0.50;;;22.90;48.40;;;;;;5024348;28;20021;-70
2023/02/18 12:30:47;;;;;;;1.10;0.50;;;23.00;48.40;;;;;;5021058;28;20077;-69
2023/02/18 12:33:40;;;;;;;1.45;0.70;;;22.90;48.30;;;;;;5023477;28;20022;-70
2023/02/18 12:36:30;;;;;;;1.17;0.60;;;23.00;48.40;;;;;;5026837;28;20484;-70
2023/02/18 12:39:20;;;;;;;0.60;0.50;;;23.00;48.40;;;;;;5041574;28;20033;-70
2023/02/18 12:42:02;;;;;;;0.70;0.50;;;23.00;48.40;;;;;;5024598;28;20393;-68
2023/02/18 12:44:30;;;;;;;0.52;0.50;;;23.00;48.40;;;;;;5023415;28;20031;-69
2023/02/18 12:47:09;;;;;;;1.35;0.60;;;23.00;48.40;;;;;;5026172;28;20484;-68
2023/02/18 12:50:02;;;;;;;1.23;0.60;;;23.00;48.40;;;;;;5023787;28;20045;-69
2023/02/18 12:52:38;;;;;;;0.60;0.50;;;23.00;48.40;;;;;;5038764;28;20037;-68
2023/02/18 12:55:22;;;;;;;0.82;0.60;;;23.00;48.40;;;;;;5024206;28;20139;-65
2023/02/18 12:57:52;;;;;;;1.60;0.55;;;23.00;48.40;;;;;;5022741;28;20106;-65
2023/02/18 13:00:30;;;;;;;0.98;0.60;;;23.00;48.40;;;;;;5024009;28;20029;-67
2023/02/18 13:03:24;;;;;;;1.65;0.50;;;23.00;48.40;;;;;;5022859;28;20095;-66